Flight Track Log - Related Links

Times and Time Zones

All times are in EDT time to prevent confusion due to time zone crossing. See the UAL3740 flight status page for this flight to view local times or setup timezone preferences in your user account.

Time Position Orientation Groundspeed Altitude Reporting Facility
EDT Latitude Longitude Course Direction KTS MPH feet Rate Location/Type
Tue 08:27:31 AM 39.0000 -77.4333 360° North 197 227 2,300  Level Potomac TRACON
Tue 08:28:31 AM 39.0667 -77.4333 360° North 254 292 5,100 2,870 Climbing Potomac TRACON
Tue 08:29:26 AM 39.1167 -77.4333 360° North 266 306 7,800 2,000 Climbing Potomac TRACON
Tue 08:31:10 AM 39.1558 -77.2725 73° East 253 291 10,400 1,730 Climbing Washington Center
Tue 08:32:09 AM 39.1139 -77.1458 113° Southeast 301 346 12,500 2,067 Climbing Washington Center
Tue 08:33:09 AM 39.0781 -77.0114 109° East 348 400 14,500 2,000 Climbing Washington Center
Tue 08:34:09 AM 39.0881 -76.8672 85° East 385 443 16,500 1,750 Climbing Washington Center
Tue 08:35:09 AM 39.1019 -76.7231 83° East 390 449 18,000 1,650 Climbing Washington Center
Tue 08:36:09 AM 39.1156 -76.5789 83° East 396 456 19,800 1,750 Climbing Washington Center
Tue 08:37:09 AM 39.1314 -76.4292 82° East 409 471 21,500 1,600 Climbing Washington Center
Tue 08:38:09 AM 39.1428 -76.2794 84° East 414 476 23,000 1,050 Climbing Washington Center
Tue 08:39:09 AM 39.1956 -76.1539 61° Northeast 419 482 23,600 800 Climbing Washington Center
Tue 08:40:09 AM 39.2772 -76.0233 51° Northeast 430 495 24,600 1,000 Climbing Washington Center
Tue 08:41:09 AM 39.3589 -75.8922 51° Northeast 452 520 25,600 992 Climbing Washington Center
Tue 08:42:10 AM 39.4425 -75.7581 51° Northeast 469 540 26,600 1,050 Climbing Washington Center
Tue 08:43:09 AM 39.5281 -75.6239 50° Northeast 475 547 27,700 1,059 Climbing Washington Center
Tue 08:44:09 AM 39.6114 -75.4839 52° Northeast 480 552 28,700 1,031 Climbing Washington Center
Tue 08:45:52 AM 39.7642 -75.2350 51° Northeast 512 589 30,500 1,024 Climbing New York Center
Tue 08:46:53 AM 39.8489 -75.0917 52° Northeast 512 589 31,500 1,008 Climbing New York Center
Tue 08:47:51 AM 39.9331 -74.9506 52° Northeast 507 583 32,500 763 Climbing New York Center
Tue 08:48:51 AM 40.0111 -74.8064 55° Northeast 499 574 33,000 248 Climbing New York Center
Tue 08:49:52 AM 40.0683 -74.6550 64° Northeast 491 565 33,000  Level New York Center
Tue 08:52:15 AM 40.2228 -74.2447 64° Northeast 525 604 33,000 -414 Level Boston Center
Tue 08:53:15 AM 40.2881 -74.0669 64° Northeast 525 604 31,600 -1,550 Descending Boston Center
Tue 08:54:15 AM 40.3572 -73.8889 63° Northeast 512 589 29,900 -1,600 Descending Boston Center
Tue 08:55:15 AM 40.4175 -73.7211 65° Northeast 506 582 28,400 -1,400 Descending Boston Center
Tue 08:56:15 AM 40.4669 -73.5719 66° East 501 577 27,100 -700 Descending Boston Center
Tue 08:57:15 AM 40.5183 -73.4339 64° Northeast 460 529 27,000 -50 Descending Boston Center
Tue 08:58:15 AM 40.5717 -73.2925 64° Northeast 433 498 27,000  Level Boston Center
Tue 08:59:15 AM 40.6225 -73.1483 65° Northeast 426 490 27,000 -600 Level Boston Center
Tue 09:00:15 AM 40.6733 -73.0039 65° Northeast 426 490 25,800 -1,700 Descending Boston Center
Tue 09:01:15 AM 40.7261 -72.8700 62° Northeast 420 483 23,600 -2,200 Descending Boston Center
Tue 09:02:15 AM 40.7767 -72.7225 66° East 410 472 21,400 -2,150 Descending Boston Center
Tue 09:03:15 AM 40.8228 -72.5936 65° Northeast 398 458 19,300 -1,900 Descending Boston Center
Tue 09:04:15 AM 40.8603 -72.4758 67° East 391 450 17,600 -1,700 Descending Boston Center
Tue 09:05:15 AM 40.8936 -72.3853 64° Northeast 369 425 15,900 -2,129 Descending Boston Center
Tue 09:05:48 AM 40.9269 -72.2972 63° Northeast 353 406 14,300 -2,400 Descending Boston Center
Tue 09:06:15 AM 40.9394 -72.2506 70° East 346 398 13,500 -2,143 Descending Boston Center
Tue 09:06:30 AM 40.9517 -72.2231 60° Northeast 337 388 12,800 -2,100 Descending Boston Center
Tue 09:07:15 AM 40.9767 -72.1406 68° East 331 381 11,400 -1,672 Descending Boston Center
Tue 09:07:31 AM 40.9911 -72.1128 55° Northeast 313 360 11,100 -500 Descending Boston Center
Tue 09:08:15 AM 41.0117 -72.0386 70° East 313 360 10,900  Descending Boston Center
Tue 09:08:31 AM 41.0261 -72.0053 60° Northeast 308 354 11,100  Climbing Boston Center
Tue 09:09:15 AM 41.0467 -71.9364 68° East 303 349 10,900 -98 Descending Boston Center
Tue 09:09:32 AM 41.0611 -71.9089 55° Northeast 306 352 11,000 -900 Climbing Boston Center
Tue 09:10:15 AM 41.1006 -71.8478 49° Northeast 282 325 10,000 -1,377 Descending Boston Center
Tue 09:10:33 AM 41.1128 -71.8311 46° Northeast 282 325 9,600 -1,538 Descending Boston Center
Tue 09:11:33 AM 41.1708 -71.7700 38° Northeast 271 312 8,000 -1,488 Descending Boston Center
Tue 09:12:34 AM 41.2394 -71.7333 22° Northeast 273 314 6,600 -1,339 Descending Boston Center
Tue 09:13:34 AM 41.3100 -71.7022 18° North 268 308 5,300 -793 Descending Boston Center
Tue 09:14:35 AM 41.3786 -71.6628 23° Northeast 251 289 5,000 -197 Descending Boston Center
Tue 09:15:36 AM 41.4408 -71.6286 22° Northeast 243 280 4,900 -694 Descending Boston Center
Tue 09:16:36 AM 41.5033 -71.6003 19° North 237 273 3,600 -893 Descending Boston Center
Tue 09:17:37 AM 41.5572 -71.5719 21° North 204 235 3,100 -298 Descending Boston Center
Tue 09:18:37 AM 41.5986 -71.5322 36° Northeast 180 207 3,000 -496 Descending Boston Center
Tue 09:19:38 AM 41.6317 -71.5042 32° Northeast 134 154 2,100 -776 Descending Boston Center
Tue 09:20:33 AM 41.6564 -71.4842 31° Northeast 119 137 1,500 -626 Descending Boston Center
Tue 09:21:33 AM 41.6856 -71.4589 33° Northeast 117 135 900 -600 Descending Boston Center

Login

Don't have an account? Register now (free) for customized features, flight alerts, and more!